createdAt,value
2019-01-05T00:00:34.386Z,98.38
2019-01-05T00:01:34.393Z,98.12
2019-01-05T00:02:34.416Z,98.69
2019-01-05T00:03:34.397Z,98.38
2019-01-05T00:04:34.341Z,98.38
2019-01-05T00:05:34.329Z,98.58
2019-01-05T00:06:34.321Z,98.38
2019-01-05T00:07:34.317Z,98.48
2019-01-05T00:08:34.300Z,98.48
2019-01-05T00:09:34.289Z,98.64
2019-01-05T00:10:34.282Z,98.48
2019-01-05T00:11:34.274Z,98.58
2019-01-05T00:12:34.260Z,98.90
2019-01-05T00:13:34.250Z,98.79
2019-01-05T00:14:34.232Z,98.27
2019-01-05T00:15:34.227Z,98.95
2019-01-05T00:16:34.216Z,99.00
2019-01-05T00:17:34.206Z,99.10
2019-01-05T00:18:34.192Z,98.90
2019-01-05T00:19:34.195Z,98.79
2019-01-05T00:20:34.171Z,99.10
2019-01-05T00:21:34.161Z,99.16
2019-01-05T00:22:34.154Z,98.95
2019-01-05T00:23:34.148Z,99.05
2019-01-05T00:24:34.128Z,99.10
2019-01-05T00:25:34.130Z,99.16
2019-01-05T00:26:34.147Z,99.16
2019-01-05T00:27:34.098Z,99.26
2019-01-05T00:28:34.087Z,99.16
2019-01-05T00:29:34.082Z,99.05
2019-01-05T00:30:34.068Z,99.21
2019-01-05T00:31:34.066Z,99.05
2019-01-05T00:32:34.041Z,99.16
2019-01-05T00:33:34.034Z,99.26
2019-01-05T00:34:34.024Z,99.16
2019-01-05T00:35:34.009Z,98.90
2019-01-05T00:36:34.016Z,99.10
2019-01-05T00:37:33.987Z,99.05
2019-01-05T00:38:33.980Z,99.05
2019-01-05T00:39:33.969Z,98.79
2019-01-05T00:40:33.965Z,98.69
2019-01-05T00:41:33.946Z,99.26
2019-01-05T00:42:33.946Z,99.26
2019-01-05T00:43:33.918Z,99.41
2019-01-05T00:44:33.915Z,99.41
2019-01-05T00:45:33.902Z,99.31
2019-01-05T00:46:33.903Z,99.37
2019-01-05T00:47:33.882Z,99.37
2019-01-05T00:48:33.876Z,99.05
2019-01-05T00:49:33.859Z,99.37
2019-01-05T00:50:33.849Z,98.74
2019-01-05T00:51:33.845Z,98.64
2019-01-05T00:52:33.833Z,99.37
2019-01-05T00:53:33.817Z,99.37
2019-01-05T00:54:33.820Z,99.16
2019-01-05T00:55:33.797Z,99.37
2019-01-05T00:56:33.783Z,99.16
2019-01-05T00:57:33.777Z,99.16
2019-01-05T00:58:33.772Z,99.16
2019-01-05T00:59:33.758Z,99.37
2019-01-05T01:00:33.755Z,99.05
2019-01-05T01:01:33.733Z,99.37
2019-01-05T01:02:33.727Z,99.05
2019-01-05T01:03:33.710Z,98.95
2019-01-05T01:04:33.712Z,98.85
2019-01-05T01:05:33.693Z,98.95
2019-01-05T01:06:33.682Z,99.16
2019-01-05T01:07:33.668Z,99.37
2019-01-05T01:08:33.660Z,99.37
2019-01-05T01:09:33.646Z,99.16
2019-01-05T01:10:33.647Z,99.47
2019-01-05T01:11:33.627Z,99.57
2019-01-05T01:12:33.629Z,99.47
2019-01-05T01:13:33.602Z,99.26
2019-01-05T01:14:33.592Z,99.37
2019-01-05T01:15:33.587Z,99.26
2019-01-05T01:16:33.573Z,99.16
2019-01-05T01:17:33.568Z,99.78
2019-01-05T01:18:33.562Z,99.73
2019-01-05T01:19:33.537Z,99.68
2019-01-05T01:20:33.529Z,99.78
2019-01-05T01:21:33.518Z,99.57
2019-01-05T01:22:33.508Z,99.78
2019-01-05T01:23:33.494Z,99.68
2019-01-05T01:24:33.493Z,99.47
2019-01-05T01:25:33.477Z,99.68
2019-01-05T01:26:33.468Z,99.47
2019-01-05T01:27:33.461Z,99.99
2019-01-05T01:28:33.445Z,99.99
2019-01-05T01:29:33.430Z,99.78
2019-01-05T01:30:33.424Z,99.73
2019-01-05T01:31:33.411Z,99.73
2019-01-05T01:32:33.401Z,99.73
2019-01-05T01:33:33.392Z,99.73
2019-01-05T01:34:33.383Z,99.84
2019-01-05T01:35:33.372Z,99.52
2019-01-05T01:36:33.363Z,99.63
2019-01-05T01:37:33.345Z,99.84
2019-01-05T01:38:33.337Z,99.84
2019-01-05T01:39:33.324Z,99.73
2019-01-05T01:40:33.317Z,99.63
2019-01-05T01:41:33.305Z,99.94
2019-01-05T01:42:33.293Z,99.84
2019-01-05T01:43:33.288Z,99.73
2019-01-05T01:44:33.278Z,99.99
2019-01-05T01:45:33.292Z,99.99
2019-01-05T01:46:33.253Z,99.99
2019-01-05T01:47:33.236Z,99.99
2019-01-05T01:48:33.229Z,99.99
2019-01-05T01:49:33.218Z,99.99
2019-01-05T01:50:33.206Z,99.99
2019-01-05T01:51:33.204Z,99.99
2019-01-05T01:52:33.188Z,99.99
2019-01-05T01:53:33.175Z,99.99
2019-01-05T01:54:33.167Z,99.99
2019-01-05T01:55:33.154Z,99.99
2019-01-05T01:56:33.142Z,99.99
2019-01-05T01:57:33.136Z,99.99
2019-01-05T01:58:33.123Z,99.99
2019-01-05T01:59:33.111Z,99.99
2019-01-05T02:00:33.106Z,99.99
2019-01-05T02:01:33.089Z,99.99
2019-01-05T02:02:33.086Z,99.99
2019-01-05T02:03:33.071Z,99.99
2019-01-05T02:04:33.059Z,99.99
2019-01-05T02:05:33.047Z,99.99
2019-01-05T02:06:33.041Z,99.99
2019-01-05T02:07:33.025Z,99.99
2019-01-05T02:08:33.016Z,99.99
2019-01-05T02:09:33.013Z,99.99
2019-01-05T02:10:32.990Z,99.99
2019-01-05T02:11:33.012Z,99.99
2019-01-05T02:12:32.973Z,99.99
2019-01-05T02:13:32.960Z,99.99
2019-01-05T02:14:32.968Z,99.79
2019-01-05T02:15:32.937Z,99.99
2019-01-05T02:16:32.927Z,99.99
2019-01-05T02:17:32.918Z,99.99
2019-01-05T02:18:32.956Z,99.99
2019-01-05T02:19:32.895Z,99.99
2019-01-05T02:20:32.887Z,99.99
2019-01-05T02:21:32.871Z,99.99
2019-01-05T02:22:32.861Z,99.99
2019-01-05T02:23:32.863Z,99.99
2019-01-05T02:24:32.849Z,99.99
2019-01-05T02:25:32.830Z,99.99
2019-01-05T02:26:32.828Z,99.99
2019-01-05T02:27:32.810Z,99.99
2019-01-05T02:28:32.800Z,99.99
2019-01-05T02:29:32.786Z,99.99
2019-01-05T02:30:32.781Z,99.99
2019-01-05T02:31:32.776Z,99.99
2019-01-05T02:32:32.759Z,99.99
2019-01-05T02:33:32.745Z,99.99
2019-01-05T02:34:32.738Z,99.99
2019-01-05T02:35:32.723Z,99.99
2019-01-05T02:36:32.710Z,99.99
2019-01-05T02:37:32.705Z,99.99
2019-01-05T02:38:32.698Z,99.99
2019-01-05T02:39:32.681Z,99.99
2019-01-05T02:40:32.667Z,99.99
2019-01-05T02:41:32.668Z,99.99
2019-01-05T02:42:32.655Z,99.99
2019-01-05T02:43:32.643Z,99.99
2019-01-05T02:44:32.622Z,99.99
2019-01-05T02:45:32.617Z,99.99
2019-01-05T02:46:32.602Z,99.99
2019-01-05T02:47:32.593Z,99.99
2019-01-05T02:48:32.580Z,99.99
2019-01-05T02:49:32.569Z,99.99
2019-01-05T02:50:32.553Z,99.99
2019-01-05T02:51:32.546Z,99.99
2019-01-05T02:52:32.532Z,99.99
2019-01-05T02:53:32.520Z,99.99
2019-01-05T02:54:32.510Z,99.99
2019-01-05T02:55:32.504Z,99.99
2019-01-05T02:56:32.488Z,99.99
2019-01-05T02:57:32.486Z,99.99
2019-01-05T02:58:32.468Z,99.99
2019-01-05T02:59:32.466Z,99.99
2019-01-05T03:00:32.459Z,99.99
2019-01-05T03:01:32.442Z,99.99
2019-01-05T03:02:32.421Z,99.99
2019-01-05T03:03:32.415Z,99.99
2019-01-05T03:04:32.404Z,99.99
2019-01-05T03:05:32.391Z,99.95
2019-01-05T03:06:32.385Z,99.99
2019-01-05T03:07:32.370Z,99.99
2019-01-05T03:08:32.357Z,99.99
2019-01-05T03:09:32.355Z,99.99
2019-01-05T03:10:32.334Z,99.99
2019-01-05T03:11:32.332Z,99.99
2019-01-05T03:12:32.316Z,99.99
2019-01-05T03:13:32.304Z,99.99
2019-01-05T03:14:32.295Z,99.99
2019-01-05T03:15:32.285Z,99.99
2019-01-05T03:16:32.271Z,99.99
2019-01-05T03:17:32.262Z,99.99
2019-01-05T03:18:32.254Z,99.99
2019-01-05T03:19:32.238Z,99.99
2019-01-05T03:20:32.230Z,99.99
2019-01-05T03:21:32.217Z,99.99
2019-01-05T03:22:32.210Z,99.99
2019-01-05T03:23:32.202Z,99.99
2019-01-05T03:24:32.199Z,99.99
2019-01-05T03:25:32.173Z,99.99
2019-01-05T03:26:32.168Z,99.99
2019-01-05T03:27:32.150Z,99.99
2019-01-05T03:28:32.152Z,99.99
2019-01-05T03:29:32.128Z,99.99
2019-01-05T03:30:32.755Z,99.99
2019-01-05T03:31:32.121Z,99.99
2019-01-05T03:32:32.108Z,99.99
2019-01-05T03:33:32.088Z,99.99
2019-01-05T03:34:32.082Z,99.99
2019-01-05T03:35:32.064Z,99.99
2019-01-05T03:36:32.054Z,99.99
2019-01-05T03:37:32.049Z,99.99
2019-01-05T03:38:32.042Z,99.99
2019-01-05T03:39:32.020Z,99.99
2019-01-05T03:40:32.012Z,99.99
2019-01-05T03:41:32.014Z,99.99
2019-01-05T03:42:32.003Z,99.99
2019-01-05T03:43:31.978Z,99.99
2019-01-05T03:44:31.968Z,99.99
2019-01-05T03:45:31.955Z,99.99
2019-01-05T03:46:31.948Z,99.99
2019-01-05T03:47:31.931Z,99.99
2019-01-05T03:48:31.960Z,99.99
2019-01-05T03:49:31.917Z,99.99
2019-01-05T03:50:31.901Z,99.99
2019-01-05T03:51:31.893Z,99.99
2019-01-05T03:52:31.879Z,99.99
2019-01-05T03:53:31.866Z,99.99
2019-01-05T03:54:31.857Z,99.99
2019-01-05T03:55:31.849Z,99.99
2019-01-05T03:56:31.834Z,99.99
2019-01-05T03:57:31.824Z,99.99
2019-01-05T03:58:31.815Z,99.99
2019-01-05T03:59:31.804Z,99.99
2019-01-05T04:00:31.792Z,99.99
2019-01-05T04:01:31.795Z,99.99
2019-01-05T04:02:31.775Z,99.99
2019-01-05T04:03:31.761Z,99.99
2019-01-05T04:04:31.747Z,99.99
2019-01-05T04:05:31.740Z,99.99
2019-01-05T04:06:31.725Z,99.99
2019-01-05T04:07:31.723Z,99.99
2019-01-05T04:08:31.707Z,99.99
2019-01-05T04:09:31.698Z,99.99
2019-01-05T04:10:31.686Z,99.99
2019-01-05T04:11:31.676Z,99.99
2019-01-05T04:12:32.007Z,99.99
2019-01-05T04:13:31.649Z,99.99
2019-01-05T04:14:31.641Z,99.99
2019-01-05T04:15:31.629Z,99.99
2019-01-05T04:16:31.620Z,99.99
2019-01-05T04:17:31.606Z,99.99
2019-01-05T04:18:31.599Z,99.99
2019-01-05T04:19:31.592Z,99.99
2019-01-05T04:20:31.573Z,99.99
2019-01-05T04:21:31.564Z,99.99
2019-01-05T04:22:31.561Z,99.96
2019-01-05T04:23:31.558Z,99.99
2019-01-05T04:24:31.538Z,99.99
2019-01-05T04:25:31.554Z,99.99
2019-01-05T04:26:31.507Z,99.99
2019-01-05T04:27:31.503Z,99.99
2019-01-05T04:28:31.490Z,99.99
2019-01-05T04:29:31.475Z,99.99
2019-01-05T04:30:31.465Z,99.99
2019-01-05T04:31:31.460Z,99.99
2019-01-05T04:32:31.442Z,99.99
2019-01-05T04:33:31.433Z,99.99
2019-01-05T04:34:31.427Z,99.99
2019-01-05T04:35:31.411Z,99.99
2019-01-05T04:36:31.400Z,99.99
2019-01-05T04:37:31.391Z,99.99
2019-01-05T04:38:31.384Z,99.99
2019-01-05T04:39:31.367Z,99.99
2019-01-05T04:40:31.361Z,99.99
2019-01-05T04:41:31.345Z,99.99
2019-01-05T04:42:31.341Z,99.99
2019-01-05T04:43:31.326Z,99.99
2019-01-05T04:44:31.315Z,99.99
2019-01-05T04:45:31.304Z,99.99
2019-01-05T04:46:31.305Z,99.99
2019-01-05T04:47:31.281Z,99.99
2019-01-05T04:48:31.277Z,99.99
2019-01-05T04:49:31.261Z,99.99
2019-01-05T04:50:31.246Z,99.99
2019-01-05T04:51:31.243Z,99.99
2019-01-05T04:52:31.226Z,99.99
2019-01-05T04:53:31.214Z,99.99
2019-01-05T04:54:31.206Z,99.99
2019-01-05T04:55:31.192Z,99.99
2019-01-05T04:56:31.183Z,99.99
2019-01-05T04:57:31.174Z,99.99
2019-01-05T04:58:31.161Z,99.99
2019-01-05T04:59:31.148Z,99.99
2019-01-05T05:00:31.137Z,99.99
2019-01-05T05:01:31.126Z,99.99
2019-01-05T05:02:31.117Z,99.99
2019-01-05T05:03:31.108Z,99.99
2019-01-05T05:04:31.095Z,99.99
2019-01-05T05:05:31.082Z,99.99
2019-01-05T05:06:31.071Z,99.99
2019-01-05T05:07:31.063Z,99.99
2019-01-05T05:08:31.051Z,99.99
2019-01-05T05:09:31.060Z,99.99
2019-01-05T05:10:31.031Z,99.99
2019-01-05T05:11:31.021Z,99.99
2019-01-05T05:12:31.007Z,99.99
2019-01-05T05:13:31.008Z,99.99
2019-01-05T05:14:30.991Z,99.71
2019-01-05T05:15:30.990Z,99.82
2019-01-05T05:16:30.977Z,99.82
2019-01-05T05:17:30.950Z,99.99
2019-01-05T05:18:30.984Z,99.99
2019-01-05T05:19:30.930Z,99.99
2019-01-05T05:20:30.923Z,99.99
2019-01-05T05:21:30.921Z,99.99
2019-01-05T05:22:30.901Z,99.99
2019-01-05T05:23:30.886Z,99.99
2019-01-05T05:24:30.878Z,99.99
2019-01-05T05:25:30.865Z,99.99
2019-01-05T05:26:30.857Z,99.96
2019-01-05T05:27:30.843Z,99.99
2019-01-05T05:28:30.838Z,99.99
2019-01-05T05:29:30.819Z,99.99
2019-01-05T05:30:30.810Z,99.99
2019-01-05T05:31:30.799Z,99.99
2019-01-05T05:32:30.790Z,99.99
2019-01-05T05:33:30.777Z,99.99
2019-01-05T05:34:30.772Z,99.99
2019-01-05T05:35:30.755Z,99.99
2019-01-05T05:36:30.745Z,99.99
2019-01-05T05:37:30.734Z,99.99
2019-01-05T05:38:30.739Z,99.82
2019-01-05T05:39:30.713Z,99.99
2019-01-05T05:40:30.704Z,99.92
2019-01-05T05:41:30.690Z,99.99
2019-01-05T05:42:30.690Z,99.92
2019-01-05T05:43:30.679Z,99.82
2019-01-05T05:44:30.667Z,99.99
2019-01-05T05:45:30.647Z,99.99
2019-01-05T05:46:30.647Z,99.99
2019-01-05T05:47:30.625Z,99.99
2019-01-05T05:48:30.614Z,99.99
2019-01-05T05:49:30.607Z,99.82
2019-01-05T05:50:30.590Z,99.92
2019-01-05T05:51:30.584Z,99.99
2019-01-05T05:52:30.571Z,99.99
2019-01-05T05:53:30.565Z,99.92
2019-01-05T05:54:30.550Z,99.99
2019-01-05T05:55:30.538Z,99.92
2019-01-05T05:56:30.528Z,99.99
2019-01-05T05:57:30.516Z,99.99
2019-01-05T05:58:30.504Z,99.99
2019-01-05T05:59:30.495Z,99.99
2019-01-05T06:00:31.840Z,99.82
2019-01-05T06:01:30.473Z,99.99
2019-01-05T06:02:30.462Z,99.99
2019-01-05T06:03:30.450Z,99.77
2019-01-05T06:04:30.441Z,99.87
2019-01-05T06:05:30.427Z,99.99
2019-01-05T06:06:30.416Z,99.98
2019-01-05T06:07:30.410Z,99.99
2019-01-05T06:08:30.398Z,99.99
2019-01-05T06:09:30.386Z,99.56
2019-01-05T06:10:30.376Z,99.99
2019-01-05T06:11:30.365Z,99.98
2019-01-05T06:12:30.354Z,99.56
2019-01-05T06:13:30.348Z,99.61
2019-01-05T06:14:30.688Z,99.92
2019-01-05T06:15:30.320Z,99.99
2019-01-05T06:16:30.313Z,99.87
2019-01-05T06:17:30.297Z,99.87
2019-01-05T06:18:30.287Z,99.99
2019-01-05T06:19:30.284Z,99.99
2019-01-05T06:20:30.267Z,99.99
2019-01-05T06:21:30.259Z,99.99
2019-01-05T06:22:30.245Z,99.99
2019-01-05T06:23:30.233Z,99.99
2019-01-05T06:24:30.223Z,99.56
2019-01-05T06:25:30.214Z,99.35
2019-01-05T06:26:30.198Z,99.98
2019-01-05T06:27:30.187Z,99.98
2019-01-05T06:28:30.181Z,99.35
2019-01-05T06:29:30.165Z,99.56
2019-01-05T06:30:30.157Z,99.56
2019-01-05T06:31:30.144Z,99.56
2019-01-05T06:32:30.154Z,99.25
2019-01-05T06:33:30.126Z,99.98
2019-01-05T06:34:30.114Z,99.66
2019-01-05T06:35:30.102Z,99.25
2019-01-05T06:36:30.091Z,99.77
2019-01-05T06:37:30.081Z,99.56
2019-01-05T06:38:30.069Z,99.56
2019-01-05T06:39:30.058Z,99.35
2019-01-05T06:40:30.052Z,99.15
2019-01-05T06:41:30.036Z,99.05
2019-01-05T06:42:30.034Z,99.15
2019-01-05T06:43:30.014Z,99.25
2019-01-05T06:44:30.010Z,99.25
2019-01-05T06:45:29.992Z,99.05
2019-01-05T06:46:29.984Z,98.94
2019-01-05T06:47:29.970Z,99.05
2019-01-05T06:48:29.978Z,99.05
2019-01-05T06:49:29.951Z,98.84
2019-01-05T06:50:29.944Z,99.05
2019-01-05T06:51:29.926Z,99.05
2019-01-05T06:52:29.919Z,99.05
2019-01-05T06:53:29.907Z,98.84
2019-01-05T06:54:29.896Z,98.94
2019-01-05T06:55:29.888Z,98.74
2019-01-05T06:56:29.874Z,99.25
2019-01-05T06:57:29.859Z,99.15
2019-01-05T06:58:29.849Z,98.90
2019-01-05T06:59:29.837Z,98.84
2019-01-05T07:00:29.827Z,98.58
2019-01-05T07:01:29.819Z,98.63
2019-01-05T07:02:29.807Z,99.05
2019-01-05T07:03:29.795Z,98.58
2019-01-05T07:04:29.785Z,98.63
2019-01-05T07:05:29.780Z,98.90
2019-01-05T07:06:29.764Z,99.00
2019-01-05T07:07:29.758Z,98.43
2019-01-05T07:08:29.740Z,98.22
2019-01-05T07:09:29.730Z,98.74
2019-01-05T07:10:29.722Z,98.74
2019-01-05T07:11:29.721Z,98.74
2019-01-05T07:12:29.697Z,98.94
2019-01-05T07:13:29.687Z,98.94
2019-01-05T07:14:29.676Z,98.79
2019-01-05T07:15:29.666Z,98.74
2019-01-05T07:16:29.654Z,98.74
2019-01-05T07:17:29.644Z,98.53
2019-01-05T07:18:29.637Z,98.53
2019-01-05T07:19:29.625Z,98.74
2019-01-05T07:20:29.612Z,98.49
2019-01-05T07:21:29.599Z,98.63
2019-01-05T07:22:29.595Z,98.74
2019-01-05T07:23:29.577Z,98.58
2019-01-05T07:24:29.569Z,98.74
2019-01-05T07:25:29.558Z,98.74
2019-01-05T07:26:29.545Z,98.43
2019-01-05T07:27:29.537Z,98.74
2019-01-05T07:28:29.536Z,98.53
2019-01-05T07:29:29.513Z,98.53
2019-01-05T07:30:29.508Z,98.53
2019-01-05T07:31:29.489Z,98.63
2019-01-05T07:32:29.481Z,97.97
2019-01-05T07:33:29.474Z,97.76
2019-01-05T07:34:29.460Z,97.86
2019-01-05T07:35:29.448Z,97.97
2019-01-05T07:36:29.438Z,97.76
2019-01-05T07:37:29.424Z,97.76
2019-01-05T07:38:29.416Z,97.66
2019-01-05T07:39:29.405Z,97.86
2019-01-05T07:40:29.395Z,97.97
2019-01-05T07:41:29.384Z,97.86
2019-01-05T07:42:29.373Z,98.07
2019-01-05T07:43:29.359Z,97.76
2019-01-05T07:44:29.354Z,97.66
2019-01-05T07:45:29.340Z,98.07
2019-01-05T07:46:29.341Z,98.28
2019-01-05T07:47:29.322Z,98.28
2019-01-05T07:48:29.317Z,97.66
2019-01-05T07:49:29.299Z,97.76
2019-01-05T07:50:29.288Z,97.34
2019-01-05T07:51:29.297Z,97.14
2019-01-05T07:52:29.265Z,97.34
2019-01-05T07:53:29.254Z,97.25
2019-01-05T07:54:29.251Z,97.04
2019-01-05T07:55:29.227Z,97.14
2019-01-05T07:56:29.229Z,96.94
2019-01-05T07:57:29.206Z,96.94
2019-01-05T07:58:29.195Z,96.94
2019-01-05T07:59:29.194Z,96.62
2019-01-05T08:00:29.176Z,96.73
2019-01-05T08:01:29.586Z,96.31
2019-01-05T08:02:29.536Z,96.52
2019-01-05T08:03:29.330Z,96.62
2019-01-05T08:05:25.292Z,97.04
2019-01-05T08:05:30.443Z,97.08
2019-01-05T08:06:29.358Z,96.83
2019-01-05T08:07:29.102Z,97.04
2019-01-05T08:08:29.445Z,96.83
2019-01-05T08:09:29.078Z,96.94
2019-01-05T08:10:30.417Z,97.04
2019-01-05T08:11:29.284Z,97.04
2019-01-05T08:12:29.405Z,96.62
2019-01-05T08:13:29.063Z,96.42
2019-01-05T08:14:29.029Z,96.73
2019-01-05T08:15:29.016Z,96.52
2019-01-05T08:16:29.005Z,96.31
2019-01-05T08:17:28.996Z,96.52
2019-01-05T08:18:28.981Z,96.52
2019-01-05T08:19:28.967Z,96.52
2019-01-05T08:20:28.959Z,96.73
2019-01-05T08:21:28.946Z,96.94
2019-01-05T08:22:28.935Z,96.42
2019-01-05T08:23:28.923Z,96.52
2019-01-05T08:24:28.913Z,96.73
2019-01-05T08:25:28.899Z,96.52
2019-01-05T08:26:28.890Z,96.52
2019-01-05T08:27:28.881Z,96.11
2019-01-05T08:28:28.867Z,96.62
2019-01-05T08:29:28.868Z,96.31
2019-01-05T08:30:28.847Z,96.73
2019-01-05T08:31:28.840Z,96.62
2019-01-05T08:32:28.826Z,96.42
2019-01-05T08:33:28.815Z,96.62
2019-01-05T08:34:28.805Z,96.52
2019-01-05T08:35:28.797Z,96.52
2019-01-05T08:36:28.783Z,96.42
2019-01-05T08:37:28.770Z,96.27
2019-01-05T08:38:28.761Z,96.42
2019-01-05T08:39:28.753Z,96.11
2019-01-05T08:40:28.748Z,96.52
2019-01-05T08:41:28.729Z,96.42
2019-01-05T08:42:28.717Z,96.48
2019-01-05T08:43:28.708Z,96.69
2019-01-05T08:44:28.698Z,95.28
2019-01-05T08:45:28.693Z,96.48
2019-01-05T08:46:28.678Z,95.96
2019-01-05T08:47:28.664Z,96.01
2019-01-05T08:48:28.655Z,96.58
2019-01-05T08:49:28.642Z,96.17
2019-01-05T08:50:29.492Z,95.34
2019-01-05T08:51:28.621Z,95.96
2019-01-05T08:52:29.885Z,95.65
2019-01-05T08:53:28.598Z,96.27
2019-01-05T08:54:28.586Z,96.17
2019-01-05T08:55:28.577Z,95.76
2019-01-05T08:56:28.567Z,96.37
2019-01-05T08:57:28.557Z,96.27
2019-01-05T08:58:28.562Z,96.37
2019-01-05T08:59:28.537Z,96.06
2019-01-05T09:00:29.086Z,96.37
2019-01-05T09:01:28.517Z,95.55
2019-01-05T09:02:28.661Z,96.06
2019-01-05T09:03:28.495Z,95.96
2019-01-05T09:04:28.642Z,96.58
2019-01-05T09:05:28.471Z,95.96
2019-01-05T09:06:28.458Z,96.06
2019-01-05T09:07:28.445Z,95.55
2019-01-05T09:08:28.436Z,96.37
2019-01-05T09:09:28.424Z,96.27
2019-01-05T09:10:28.416Z,96.27
2019-01-05T09:11:28.402Z,96.27
2019-01-05T09:12:28.396Z,95.96
2019-01-05T09:13:28.384Z,95.86
2019-01-05T09:14:28.373Z,95.55
2019-01-05T09:15:28.360Z,95.40
2019-01-05T09:16:28.352Z,95.03
2019-01-05T09:17:28.422Z,95.55
2019-01-05T09:18:28.330Z,95.86
2019-01-05T09:19:28.323Z,95.92
2019-01-05T09:20:28.307Z,95.30
2019-01-05T09:21:28.299Z,95.34
2019-01-05T09:22:28.287Z,95.50
2019-01-05T09:23:28.276Z,94.78
2019-01-05T09:24:28.264Z,94.78
2019-01-05T09:25:28.267Z,94.78
2019-01-05T09:26:28.243Z,94.89
2019-01-05T09:27:28.237Z,94.89
2019-01-05T09:28:28.227Z,94.68
2019-01-05T09:29:28.212Z,94.57
2019-01-05T09:30:28.208Z,95.09
2019-01-05T09:31:28.194Z,94.68
2019-01-05T09:32:28.180Z,93.85
2019-01-05T09:33:28.172Z,94.47
2019-01-05T09:34:28.158Z,94.27
2019-01-05T09:35:28.145Z,94.47
2019-01-05T09:36:28.577Z,94.17
2019-01-05T09:37:28.194Z,93.96
2019-01-05T09:38:28.161Z,93.54
2019-01-05T09:39:28.101Z,93.75
2019-01-05T09:40:28.094Z,93.79
2019-01-05T09:41:28.082Z,93.79
2019-01-05T09:42:28.069Z,94.21
2019-01-05T09:43:28.060Z,94.17
2019-01-05T09:44:28.099Z,93.75
2019-01-05T09:45:28.039Z,94.47
2019-01-05T09:46:28.027Z,94.37
2019-01-05T09:47:28.017Z,92.82
2019-01-05T09:48:28.007Z,92.78
2019-01-05T09:49:27.995Z,93.03
2019-01-05T09:50:27.987Z,92.99
2019-01-05T09:51:27.974Z,91.89
2019-01-05T09:52:27.965Z,91.79
2019-01-05T09:53:27.969Z,91.38
2019-01-05T09:54:27.963Z,91.54
2019-01-05T09:55:27.932Z,91.54
2019-01-05T09:56:27.924Z,91.34
2019-01-05T09:57:27.912Z,91.64
2019-01-05T09:58:27.900Z,91.13
2019-01-05T09:59:27.891Z,91.03
2019-01-05T10:00:27.879Z,91.13
2019-01-05T10:01:27.872Z,91.03
2019-01-05T10:02:27.856Z,91.44
2019-01-05T10:03:27.847Z,90.41
2019-01-05T10:04:27.836Z,89.58
2019-01-05T10:05:27.823Z,90.00
2019-01-05T10:06:27.819Z,90.55
2019-01-05T10:07:27.807Z,90.51
2019-01-05T10:08:27.793Z,90.66
2019-01-05T10:09:27.781Z,90.04
2019-01-05T10:10:27.781Z,89.94
2019-01-05T10:11:27.763Z,90.14
2019-01-05T10:12:27.749Z,90.20
2019-01-05T10:13:27.741Z,89.52
2019-01-05T10:14:27.731Z,89.22
2019-01-05T10:15:27.719Z,90.31
2019-01-05T10:16:27.709Z,90.72
2019-01-05T10:17:27.696Z,89.69
2019-01-05T10:18:27.698Z,89.48
2019-01-05T10:19:27.676Z,89.38
2019-01-05T10:20:27.667Z,89.69
2019-01-05T10:21:27.660Z,89.58
2019-01-05T10:22:27.644Z,89.17
2019-01-05T10:23:27.634Z,89.03
2019-01-05T10:24:27.630Z,89.58
2019-01-05T10:25:27.619Z,89.48
2019-01-05T10:26:27.613Z,88.65
2019-01-05T10:27:27.590Z,88.45
2019-01-05T10:28:27.579Z,88.45
2019-01-05T10:29:27.568Z,88.96
2019-01-05T10:30:27.561Z,89.17
2019-01-05T10:31:27.550Z,88.86
2019-01-05T10:32:27.537Z,88.04
2019-01-05T10:33:27.529Z,87.42
2019-01-05T10:34:27.516Z,87.93
2019-01-05T10:35:27.507Z,87.42
2019-01-05T10:36:27.494Z,88.14
2019-01-05T10:37:27.487Z,88.86
2019-01-05T10:38:27.473Z,89.17
2019-01-05T10:39:27.465Z,89.28
2019-01-05T10:40:27.450Z,88.96
2019-01-05T10:41:27.442Z,89.07
2019-01-05T10:42:27.429Z,88.56
2019-01-05T10:43:27.420Z,88.96
2019-01-05T10:44:27.407Z,89.28
2019-01-05T10:45:27.398Z,88.96
2019-01-05T10:46:27.387Z,88.49
2019-01-05T10:47:27.375Z,88.76
2019-01-05T10:48:27.365Z,88.24
2019-01-05T10:49:27.354Z,88.86
2019-01-05T10:50:27.344Z,88.76
2019-01-05T10:51:27.333Z,88.96
2019-01-05T10:52:27.322Z,88.86
2019-01-05T10:53:27.313Z,88.86
2019-01-05T10:54:27.303Z,88.96
2019-01-05T10:55:27.292Z,88.76
2019-01-05T10:56:27.285Z,89.07
2019-01-05T10:57:27.272Z,88.86
2019-01-05T10:58:27.260Z,88.96
2019-01-05T10:59:27.255Z,88.86
2019-01-05T11:00:27.243Z,88.96
2019-01-05T11:01:27.231Z,88.56
2019-01-05T11:02:27.217Z,88.76
2019-01-05T11:03:27.210Z,88.86
2019-01-05T11:04:27.202Z,88.65
2019-01-05T11:05:27.189Z,89.07
2019-01-05T11:06:27.175Z,88.45
2019-01-05T11:07:27.165Z,88.45
2019-01-05T11:08:27.156Z,88.04
2019-01-05T11:09:27.147Z,88.24
2019-01-05T11:10:27.133Z,88.24
2019-01-05T11:11:27.123Z,87.93
2019-01-05T11:12:27.111Z,88.24
2019-01-05T11:13:27.105Z,88.45
2019-01-05T11:14:27.089Z,88.24
2019-01-05T11:15:27.087Z,88.24
2019-01-05T11:16:27.076Z,87.42
2019-01-05T11:17:27.067Z,87.32
2019-01-05T11:18:27.047Z,87.52
2019-01-05T11:19:27.042Z,87.59
2019-01-05T11:20:27.025Z,87.59
2019-01-05T11:21:27.020Z,87.63
2019-01-05T11:22:27.005Z,87.79
2019-01-05T11:23:26.992Z,86.60
2019-01-05T11:24:26.985Z,86.45
2019-01-05T11:25:26.980Z,86.55
2019-01-05T11:26:26.962Z,87.59
2019-01-05T11:27:26.950Z,86.45
2019-01-05T11:28:26.950Z,87.90
2019-01-05T11:29:26.931Z,87.79
2019-01-05T11:30:26.917Z,86.87
2019-01-05T11:31:26.913Z,86.87
2019-01-05T11:32:26.898Z,86.55
2019-01-05T11:33:26.887Z,86.45
2019-01-05T11:34:26.874Z,86.35
2019-01-05T11:35:26.875Z,86.15
2019-01-05T11:36:26.861Z,86.24
2019-01-05T11:37:26.846Z,86.35
2019-01-05T11:38:26.833Z,86.66
2019-01-05T11:39:26.833Z,86.24
2019-01-05T11:40:26.817Z,86.15
2019-01-05T11:41:26.801Z,86.45
2019-01-05T11:42:26.791Z,86.35
2019-01-05T11:43:27.378Z,86.24
2019-01-05T11:44:26.773Z,86.45
2019-01-05T11:45:26.762Z,86.45
2019-01-05T11:46:26.759Z,86.87
2019-01-05T11:47:26.758Z,86.87
2019-01-05T11:48:26.730Z,86.24
2019-01-05T11:49:26.717Z,86.76
2019-01-05T11:50:26.719Z,86.45
2019-01-05T11:51:26.695Z,86.76
2019-01-05T11:52:26.692Z,86.35
2019-01-05T11:53:26.682Z,86.87
2019-01-05T11:54:26.662Z,86.24
2019-01-05T11:55:26.649Z,86.45
2019-01-05T11:56:26.657Z,86.24
2019-01-05T11:57:26.672Z,86.15
2019-01-05T11:58:26.630Z,86.35
2019-01-05T11:59:26.608Z,86.24
2019-01-05T12:00:26.604Z,86.15
2019-01-05T12:01:26.585Z,86.15
2019-01-05T12:02:26.597Z,86.39
2019-01-05T12:03:26.565Z,86.18
2019-01-05T12:04:26.565Z,86.49
2019-01-05T12:05:26.547Z,86.60
2019-01-05T12:06:26.548Z,86.45
2019-01-05T12:07:26.526Z,86.15
2019-01-05T12:08:26.541Z,86.04
2019-01-05T12:09:26.504Z,86.55
2019-01-05T12:10:26.497Z,86.39
2019-01-05T12:11:26.482Z,86.66
2019-01-05T12:12:26.471Z,86.66
2019-01-05T12:13:26.461Z,86.49
2019-01-05T12:14:26.448Z,86.87
2019-01-05T12:15:26.448Z,87.21
2019-01-05T12:16:26.446Z,86.49
2019-01-05T12:17:26.429Z,86.49
2019-01-05T12:18:26.418Z,87.21
2019-01-05T12:19:26.411Z,86.60
2019-01-05T12:20:26.394Z,86.80
2019-01-05T12:21:26.383Z,86.60
2019-01-05T12:22:26.392Z,86.45
2019-01-05T12:23:26.361Z,86.45
2019-01-05T12:24:26.362Z,86.87
2019-01-05T12:25:26.341Z,86.45
2019-01-05T12:26:26.331Z,86.39
2019-01-05T12:27:26.318Z,85.94
2019-01-05T12:28:26.299Z,86.24
2019-01-05T12:29:26.294Z,86.24
2019-01-05T12:30:26.288Z,86.45
2019-01-05T12:31:26.276Z,86.60
2019-01-05T12:32:26.263Z,85.97
2019-01-05T12:33:26.252Z,88.31
2019-01-05T12:34:26.240Z,88.82
2019-01-05T12:35:26.227Z,90.47
2019-01-05T12:36:26.218Z,89.44
2019-01-05T12:37:26.209Z,89.03
2019-01-05T12:38:26.199Z,87.48
2019-01-05T12:39:26.186Z,87.38
2019-01-05T12:40:26.179Z,89.95
2019-01-05T12:41:26.164Z,87.44
2019-01-05T12:42:26.155Z,86.10
2019-01-05T12:43:26.143Z,86.10
2019-01-05T12:44:26.136Z,86.21
2019-01-05T12:45:26.122Z,85.89
2019-01-05T12:46:26.107Z,83.94
2019-01-05T12:47:26.102Z,84.87
2019-01-05T12:48:26.084Z,85.07
2019-01-05T12:49:26.081Z,86.41
2019-01-05T12:50:26.066Z,86.00
2019-01-05T12:51:26.052Z,87.30
2019-01-05T12:52:26.043Z,85.03